sensor_id;sensor_type;location;lat;lon;timestamp;P1;durP1;ratioP1;P2;durP2;ratioP2
36411;SDS011;22445;52.100;5.176;2023-03-31T00:01:24;10.90;;;2.55;;
36411;SDS011;22445;52.100;5.176;2023-03-31T00:03:50;12.50;;;2.90;;
36411;SDS011;22445;52.100;5.176;2023-03-31T00:06:15;15.00;;;3.42;;
36411;SDS011;22445;52.100;5.176;2023-03-31T00:08:44;10.40;;;2.90;;
36411;SDS011;22445;52.100;5.176;2023-03-31T00:11:11;13.32;;;3.05;;
36411;SDS011;22445;52.100;5.176;2023-03-31T00:13:37;19.98;;;3.65;;
36411;SDS011;22445;52.100;5.176;2023-03-31T00:16:04;11.85;;;2.92;;
36411;SDS011;22445;52.100;5.176;2023-03-31T00:18:31;12.50;;;3.35;;
36411;SDS011;22445;52.100;5.176;2023-03-31T00:21:13;16.35;;;3.00;;
36411;SDS011;22445;52.100;5.176;2023-03-31T00:23:52;16.38;;;3.05;;
36411;SDS011;22445;52.100;5.176;2023-03-31T00:26:19;10.80;;;3.10;;
36411;SDS011;22445;52.100;5.176;2023-03-31T00:28:46;8.40;;;2.35;;
36411;SDS011;22445;52.100;5.176;2023-03-31T00:31:11;18.13;;;2.92;;
36411;SDS011;22445;52.100;5.176;2023-03-31T00:33:37;11.57;;;3.40;;
36411;SDS011;22445;52.100;5.176;2023-03-31T00:36:02;10.18;;;2.88;;
36411;SDS011;22445;52.100;5.176;2023-03-31T00:38:30;8.35;;;2.92;;
36411;SDS011;22445;52.100;5.176;2023-03-31T00:40:57;7.05;;;2.97;;
36411;SDS011;22445;52.100;5.176;2023-03-31T00:43:33;15.82;;;4.28;;
36411;SDS011;22445;52.100;5.176;2023-03-31T00:46:22;7.60;;;1.98;;
36411;SDS011;22445;52.100;5.176;2023-03-31T00:48:54;12.00;;;2.90;;
36411;SDS011;22445;52.100;5.176;2023-03-31T00:51:25;12.35;;;2.53;;
36411;SDS011;22445;52.100;5.176;2023-03-31T00:53:56;11.77;;;2.80;;
36411;SDS011;22445;52.100;5.176;2023-03-31T00:56:30;12.60;;;2.05;;
36411;SDS011;22445;52.100;5.176;2023-03-31T00:58:59;9.48;;;2.05;;
36411;SDS011;22445;52.100;5.176;2023-03-31T01:01:27;8.95;;;2.40;;
36411;SDS011;22445;52.100;5.176;2023-03-31T01:03:54;13.68;;;2.40;;
36411;SDS011;22445;52.100;5.176;2023-03-31T01:06:21;9.68;;;1.90;;
36411;SDS011;22445;52.100;5.176;2023-03-31T01:08:48;9.55;;;2.17;;
36411;SDS011;22445;52.100;5.176;2023-03-31T01:11:15;11.75;;;3.03;;
36411;SDS011;22445;52.100;5.176;2023-03-31T01:13:45;12.10;;;1.88;;
36411;SDS011;22445;52.100;5.176;2023-03-31T01:16:15;8.32;;;1.90;;
36411;SDS011;22445;52.100;5.176;2023-03-31T01:18:41;8.57;;;1.80;;
36411;SDS011;22445;52.100;5.176;2023-03-31T01:36:56;8.48;;;2.00;;
36411;SDS011;22445;52.100;5.176;2023-03-31T01:40:05;10.18;;;2.53;;
36411;SDS011;22445;52.100;5.176;2023-03-31T01:45:50;8.48;;;2.78;;
36411;SDS011;22445;52.100;5.176;2023-03-31T01:51:36;12.43;;;4.30;;
36411;SDS011;22445;52.100;5.176;2023-03-31T01:54:45;11.35;;;2.65;;
36411;SDS011;22445;52.100;5.176;2023-03-31T01:57:52;9.23;;;3.17;;
36411;SDS011;22445;52.100;5.176;2023-03-31T02:00:19;11.73;;;3.63;;
36411;SDS011;22445;52.100;5.176;2023-03-31T02:02:58;10.68;;;3.25;;
36411;SDS011;22445;52.100;5.176;2023-03-31T02:05:39;8.98;;;3.65;;
36411;SDS011;22445;52.100;5.176;2023-03-31T02:08:28;9.07;;;3.63;;
36411;SDS011;22445;52.100;5.176;2023-03-31T02:10:56;11.82;;;4.00;;
36411;SDS011;22445;52.100;5.176;2023-03-31T02:13:23;12.63;;;4.55;;
36411;SDS011;22445;52.100;5.176;2023-03-31T02:15:52;11.25;;;3.60;;
36411;SDS011;22445;52.100;5.176;2023-03-31T02:18:22;8.45;;;3.35;;
36411;SDS011;22445;52.100;5.176;2023-03-31T02:20:51;15.80;;;3.88;;
36411;SDS011;22445;52.100;5.176;2023-03-31T02:23:19;13.23;;;3.35;;
36411;SDS011;22445;52.100;5.176;2023-03-31T02:25:48;15.85;;;3.97;;
36411;SDS011;22445;52.100;5.176;2023-03-31T02:28:18;13.00;;;3.78;;
36411;SDS011;22445;52.100;5.176;2023-03-31T02:34:00;16.23;;;3.88;;
36411;SDS011;22445;52.100;5.176;2023-03-31T02:36:27;16.02;;;4.30;;
36411;SDS011;22445;52.100;5.176;2023-03-31T02:38:57;14.43;;;3.97;;
36411;SDS011;22445;52.100;5.176;2023-03-31T02:41:24;18.40;;;4.25;;
36411;SDS011;22445;52.100;5.176;2023-03-31T02:43:50;13.45;;;4.15;;
36411;SDS011;22445;52.100;5.176;2023-03-31T02:46:15;9.93;;;4.20;;
36411;SDS011;22445;52.100;5.176;2023-03-31T02:48:42;14.63;;;3.92;;
36411;SDS011;22445;52.100;5.176;2023-03-31T02:51:16;14.55;;;4.43;;
36411;SDS011;22445;52.100;5.176;2023-03-31T03:07:07;13.82;;;4.20;;
36411;SDS011;22445;52.100;5.176;2023-03-31T03:10:09;11.13;;;4.20;;
36411;SDS011;22445;52.100;5.176;2023-03-31T03:16:20;11.50;;;3.67;;
36411;SDS011;22445;52.100;5.176;2023-03-31T03:18:58;17.80;;;4.55;;
36411;SDS011;22445;52.100;5.176;2023-03-31T03:21:25;14.77;;;3.33;;
36411;SDS011;22445;52.100;5.176;2023-03-31T03:23:52;16.75;;;4.15;;
36411;SDS011;22445;52.100;5.176;2023-03-31T03:26:18;15.48;;;3.78;;
36411;SDS011;22445;52.100;5.176;2023-03-31T03:28:46;12.05;;;3.30;;
36411;SDS011;22445;52.100;5.176;2023-03-31T03:31:13;14.10;;;4.00;;
36411;SDS011;22445;52.100;5.176;2023-03-31T03:33:40;14.77;;;3.65;;
36411;SDS011;22445;52.100;5.176;2023-03-31T03:36:05;14.77;;;3.58;;
36411;SDS011;22445;52.100;5.176;2023-03-31T03:38:31;17.95;;;3.78;;
36411;SDS011;22445;52.100;5.176;2023-03-31T03:40:57;8.93;;;3.38;;
36411;SDS011;22445;52.100;5.176;2023-03-31T03:43:22;8.68;;;3.10;;
36411;SDS011;22445;52.100;5.176;2023-03-31T03:45:48;14.57;;;4.07;;
36411;SDS011;22445;52.100;5.176;2023-03-31T03:48:14;11.43;;;3.45;;
36411;SDS011;22445;52.100;5.176;2023-03-31T03:50:40;12.00;;;3.78;;
36411;SDS011;22445;52.100;5.176;2023-03-31T03:53:06;13.60;;;3.83;;
36411;SDS011;22445;52.100;5.176;2023-03-31T03:55:32;13.50;;;3.78;;
36411;SDS011;22445;52.100;5.176;2023-03-31T03:57:58;19.58;;;3.60;;
36411;SDS011;22445;52.100;5.176;2023-03-31T04:00:24;8.80;;;3.08;;
36411;SDS011;22445;52.100;5.176;2023-03-31T04:02:49;13.68;;;2.88;;
36411;SDS011;22445;52.100;5.176;2023-03-31T04:05:15;8.13;;;2.72;;
36411;SDS011;22445;52.100;5.176;2023-03-31T04:07:40;11.57;;;2.40;;
36411;SDS011;22445;52.100;5.176;2023-03-31T04:10:06;10.48;;;2.45;;
36411;SDS011;22445;52.100;5.176;2023-03-31T04:12:33;9.57;;;2.38;;
36411;SDS011;22445;52.100;5.176;2023-03-31T04:14:59;12.02;;;2.53;;
36411;SDS011;22445;52.100;5.176;2023-03-31T04:17:25;7.38;;;1.95;;
36411;SDS011;22445;52.100;5.176;2023-03-31T04:19:59;9.75;;;2.85;;
36411;SDS011;22445;52.100;5.176;2023-03-31T04:22:29;10.32;;;2.45;;
36411;SDS011;22445;52.100;5.176;2023-03-31T04:24:59;7.80;;;2.13;;
36411;SDS011;22445;52.100;5.176;2023-03-31T04:27:44;7.50;;;2.13;;
36411;SDS011;22445;52.100;5.176;2023-03-31T04:30:17;9.40;;;2.08;;
36411;SDS011;22445;52.100;5.176;2023-03-31T04:33:04;10.32;;;2.05;;
36411;SDS011;22445;52.100;5.176;2023-03-31T04:35:30;12.63;;;2.67;;
36411;SDS011;22445;52.100;5.176;2023-03-31T04:38:06;6.95;;;2.28;;
36411;SDS011;22445;52.100;5.176;2023-03-31T04:40:33;8.25;;;2.25;;
36411;SDS011;22445;52.100;5.176;2023-03-31T04:42:59;10.77;;;2.05;;
36411;SDS011;22445;52.100;5.176;2023-03-31T04:45:26;8.25;;;2.22;;
36411;SDS011;22445;52.100;5.176;2023-03-31T04:47:51;12.20;;;2.13;;
36411;SDS011;22445;52.100;5.176;2023-03-31T04:50:17;13.18;;;2.78;;
36411;SDS011;22445;52.100;5.176;2023-03-31T04:52:43;10.57;;;2.63;;
36411;SDS011;22445;52.100;5.176;2023-03-31T04:55:08;11.27;;;2.42;;
36411;SDS011;22445;52.100;5.176;2023-03-31T04:57:34;7.35;;;2.58;;
36411;SDS011;22445;52.100;5.176;2023-03-31T05:00:01;11.07;;;2.60;;
36411;SDS011;22445;52.100;5.176;2023-03-31T05:02:31;16.10;;;3.05;;
36411;SDS011;22445;52.100;5.176;2023-03-31T05:04:56;9.00;;;2.60;;
36411;SDS011;22445;52.100;5.176;2023-03-31T05:07:22;9.30;;;2.63;;
36411;SDS011;22445;52.100;5.176;2023-03-31T05:09:48;9.95;;;2.47;;
36411;SDS011;22445;52.100;5.176;2023-03-31T05:12:13;9.88;;;2.65;;
36411;SDS011;22445;52.100;5.176;2023-03-31T05:14:39;10.05;;;2.40;;
36411;SDS011;22445;52.100;5.176;2023-03-31T05:17:04;6.03;;;2.28;;
36411;SDS011;22445;52.100;5.176;2023-03-31T05:19:30;15.95;;;2.65;;
36411;SDS011;22445;52.100;5.176;2023-03-31T05:21:56;7.47;;;2.13;;
36411;SDS011;22445;52.100;5.176;2023-03-31T05:24:21;7.47;;;2.40;;
36411;SDS011;22445;52.100;5.176;2023-03-31T05:26:47;14.80;;;2.90;;
36411;SDS011;22445;52.100;5.176;2023-03-31T05:29:19;6.28;;;2.28;;
36411;SDS011;22445;52.100;5.176;2023-03-31T05:31:46;10.05;;;2.33;;
36411;SDS011;22445;52.100;5.176;2023-03-31T05:34:12;4.95;;;1.85;;
36411;SDS011;22445;52.100;5.176;2023-03-31T05:36:38;6.63;;;1.98;;
36411;SDS011;22445;52.100;5.176;2023-03-31T05:39:04;8.45;;;1.98;;
36411;SDS011;22445;52.100;5.176;2023-03-31T05:41:30;9.95;;;2.40;;
36411;SDS011;22445;52.100;5.176;2023-03-31T05:43:55;6.55;;;2.15;;
36411;SDS011;22445;52.100;5.176;2023-03-31T05:46:21;11.60;;;2.00;;
36411;SDS011;22445;52.100;5.176;2023-03-31T05:48:46;12.85;;;2.50;;
36411;SDS011;22445;52.100;5.176;2023-03-31T05:51:12;5.32;;;1.95;;
36411;SDS011;22445;52.100;5.176;2023-03-31T05:53:38;5.93;;;2.17;;
36411;SDS011;22445;52.100;5.176;2023-03-31T05:56:04;8.20;;;2.00;;
36411;SDS011;22445;52.100;5.176;2023-03-31T05:58:32;10.23;;;2.75;;
36411;SDS011;22445;52.100;5.176;2023-03-31T06:03:51;8.35;;;1.95;;
36411;SDS011;22445;52.100;5.176;2023-03-31T06:06:16;7.88;;;2.28;;
36411;SDS011;22445;52.100;5.176;2023-03-31T06:08:43;7.35;;;2.35;;
36411;SDS011;22445;52.100;5.176;2023-03-31T06:11:11;8.68;;;2.47;;
36411;SDS011;22445;52.100;5.176;2023-03-31T06:13:38;8.43;;;2.22;;
36411;SDS011;22445;52.100;5.176;2023-03-31T06:16:05;8.60;;;1.90;;
36411;SDS011;22445;52.100;5.176;2023-03-31T06:18:32;11.25;;;2.30;;
36411;SDS011;22445;52.100;5.176;2023-03-31T06:20:58;12.95;;;2.15;;
36411;SDS011;22445;52.100;5.176;2023-03-31T06:23:24;4.63;;;2.00;;
36411;SDS011;22445;52.100;5.176;2023-03-31T06:25:50;5.35;;;1.92;;
36411;SDS011;22445;52.100;5.176;2023-03-31T06:28:16;7.63;;;1.95;;
36411;SDS011;22445;52.100;5.176;2023-03-31T06:30:42;7.40;;;1.25;;
36411;SDS011;22445;52.100;5.176;2023-03-31T06:33:08;8.25;;;1.77;;
36411;SDS011;22445;52.100;5.176;2023-03-31T06:35:36;5.05;;;1.55;;
36411;SDS011;22445;52.100;5.176;2023-03-31T06:38:02;6.85;;;1.52;;
36411;SDS011;22445;52.100;5.176;2023-03-31T06:40:28;4.72;;;1.17;;
36411;SDS011;22445;52.100;5.176;2023-03-31T06:42:53;9.85;;;2.08;;
36411;SDS011;22445;52.100;5.176;2023-03-31T06:45:19;5.47;;;1.65;;
36411;SDS011;22445;52.100;5.176;2023-03-31T06:47:45;3.75;;;1.30;;
36411;SDS011;22445;52.100;5.176;2023-03-31T06:50:11;4.75;;;1.13;;
36411;SDS011;22445;52.100;5.176;2023-03-31T06:52:36;5.63;;;1.25;;
36411;SDS011;22445;52.100;5.176;2023-03-31T06:55:02;2.10;;;1.23;;
36411;SDS011;22445;52.100;5.176;2023-03-31T06:57:28;4.20;;;1.13;;
36411;SDS011;22445;52.100;5.176;2023-03-31T06:59:55;6.18;;;1.40;;
36411;SDS011;22445;52.100;5.176;2023-03-31T07:02:21;5.63;;;1.35;;
36411;SDS011;22445;52.100;5.176;2023-03-31T07:04:46;6.47;;;1.40;;
36411;SDS011;22445;52.100;5.176;2023-03-31T07:07:12;3.63;;;0.85;;
36411;SDS011;22445;52.100;5.176;2023-03-31T07:09:37;3.25;;;1.02;;
36411;SDS011;22445;52.100;5.176;2023-03-31T07:12:03;3.50;;;0.77;;
36411;SDS011;22445;52.100;5.176;2023-03-31T07:14:29;9.32;;;1.42;;
36411;SDS011;22445;52.100;5.176;2023-03-31T07:16:56;3.42;;;0.80;;
36411;SDS011;22445;52.100;5.176;2023-03-31T07:19:22;5.13;;;1.00;;
36411;SDS011;22445;52.100;5.176;2023-03-31T07:21:47;5.07;;;1.30;;
36411;SDS011;22445;52.100;5.176;2023-03-31T07:24:13;6.68;;;1.20;;
36411;SDS011;22445;52.100;5.176;2023-03-31T07:26:38;4.97;;;1.30;;
36411;SDS011;22445;52.100;5.176;2023-03-31T07:29:04;4.80;;;1.40;;
36411;SDS011;22445;52.100;5.176;2023-03-31T07:31:30;9.30;;;1.38;;
36411;SDS011;22445;52.100;5.176;2023-03-31T07:33:55;2.55;;;1.20;;
36411;SDS011;22445;52.100;5.176;2023-03-31T07:36:21;2.47;;;1.10;;
36411;SDS011;22445;52.100;5.176;2023-03-31T07:38:46;3.90;;;1.08;;
36411;SDS011;22445;52.100;5.176;2023-03-31T07:41:14;5.47;;;1.50;;
36411;SDS011;22445;52.100;5.176;2023-03-31T07:43:45;5.82;;;1.45;;
36411;SDS011;22445;52.100;5.176;2023-03-31T07:46:14;4.63;;;1.40;;
36411;SDS011;22445;52.100;5.176;2023-03-31T07:48:53;7.45;;;1.88;;
36411;SDS011;22445;52.100;5.176;2023-03-31T07:51:20;4.60;;;1.75;;
36411;SDS011;22445;52.100;5.176;2023-03-31T07:53:47;3.20;;;1.50;;
36411;SDS011;22445;52.100;5.176;2023-03-31T07:56:14;4.68;;;1.98;;
36411;SDS011;22445;52.100;5.176;2023-03-31T07:58:41;5.30;;;1.73;;
36411;SDS011;22445;52.100;5.176;2023-03-31T08:01:07;6.25;;;1.60;;
36411;SDS011;22445;52.100;5.176;2023-03-31T08:03:33;8.40;;;2.40;;
36411;SDS011;22445;52.100;5.176;2023-03-31T08:05:58;6.70;;;2.70;;
36411;SDS011;22445;52.100;5.176;2023-03-31T08:08:24;6.75;;;1.92;;
36411;SDS011;22445;52.100;5.176;2023-03-31T08:10:50;5.65;;;2.47;;
36411;SDS011;22445;52.100;5.176;2023-03-31T08:13:16;7.88;;;2.25;;
36411;SDS011;22445;52.100;5.176;2023-03-31T08:15:42;9.25;;;2.75;;
36411;SDS011;22445;52.100;5.176;2023-03-31T08:18:07;8.68;;;2.80;;
36411;SDS011;22445;52.100;5.176;2023-03-31T08:20:33;7.28;;;2.58;;
36411;SDS011;22445;52.100;5.176;2023-03-31T08:22:58;8.93;;;2.83;;
36411;SDS011;22445;52.100;5.176;2023-03-31T08:25:24;11.00;;;2.65;;
36411;SDS011;22445;52.100;5.176;2023-03-31T08:27:50;5.40;;;2.75;;
36411;SDS011;22445;52.100;5.176;2023-03-31T08:30:16;10.68;;;4.13;;
36411;SDS011;22445;52.100;5.176;2023-03-31T08:32:43;7.63;;;3.40;;
36411;SDS011;22445;52.100;5.176;2023-03-31T08:35:08;8.18;;;3.53;;
36411;SDS011;22445;52.100;5.176;2023-03-31T08:37:35;14.38;;;3.72;;
36411;SDS011;22445;52.100;5.176;2023-03-31T08:40:04;10.85;;;4.43;;
36411;SDS011;22445;52.100;5.176;2023-03-31T08:42:47;11.50;;;4.03;;
36411;SDS011;22445;52.100;5.176;2023-03-31T08:51:04;10.98;;;4.07;;
36411;SDS011;22445;52.100;5.176;2023-03-31T08:57:01;14.32;;;3.92;;
36411;SDS011;22445;52.100;5.176;2023-03-31T08:59:31;15.25;;;4.07;;
36411;SDS011;22445;52.100;5.176;2023-03-31T09:07:58;12.07;;;3.47;;
36411;SDS011;22445;52.100;5.176;2023-03-31T09:14:13;16.85;;;4.55;;
36411;SDS011;22445;52.100;5.176;2023-03-31T09:17:20;19.45;;;4.43;;
36411;SDS011;22445;52.100;5.176;2023-03-31T09:19:57;10.85;;;3.95;;
36411;SDS011;22445;52.100;5.176;2023-03-31T09:22:29;10.10;;;3.75;;
36411;SDS011;22445;52.100;5.176;2023-03-31T09:27:45;13.35;;;3.35;;
36411;SDS011;22445;52.100;5.176;2023-03-31T09:30:25;10.45;;;3.40;;
36411;SDS011;22445;52.100;5.176;2023-03-31T09:33:05;14.85;;;3.17;;
36411;SDS011;22445;52.100;5.176;2023-03-31T09:35:36;13.45;;;3.40;;
36411;SDS011;22445;52.100;5.176;2023-03-31T09:38:02;11.50;;;3.00;;
36411;SDS011;22445;52.100;5.176;2023-03-31T09:40:28;10.32;;;2.65;;
36411;SDS011;22445;52.100;5.176;2023-03-31T09:42:58;13.98;;;3.08;;
36411;SDS011;22445;52.100;5.176;2023-03-31T09:45:28;11.52;;;3.33;;
36411;SDS011;22445;52.100;5.176;2023-03-31T09:47:56;12.43;;;2.97;;
36411;SDS011;22445;52.100;5.176;2023-03-31T09:50:23;19.50;;;3.60;;
36411;SDS011;22445;52.100;5.176;2023-03-31T09:52:49;13.18;;;3.08;;
36411;SDS011;22445;52.100;5.176;2023-03-31T09:55:19;11.18;;;2.63;;
36411;SDS011;22445;52.100;5.176;2023-03-31T09:57:46;13.75;;;3.28;;
36411;SDS011;22445;52.100;5.176;2023-03-31T10:03:00;9.38;;;2.65;;
36411;SDS011;22445;52.100;5.176;2023-03-31T10:08:21;12.18;;;2.60;;
36411;SDS011;22445;52.100;5.176;2023-03-31T10:10:53;11.50;;;2.92;;
36411;SDS011;22445;52.100;5.176;2023-03-31T10:13:35;11.95;;;2.38;;
36411;SDS011;22445;52.100;5.176;2023-03-31T10:16:28;10.95;;;2.63;;
36411;SDS011;22445;52.100;5.176;2023-03-31T10:22:34;10.88;;;2.35;;
36411;SDS011;22445;52.100;5.176;2023-03-31T10:25:03;12.98;;;2.25;;
36411;SDS011;22445;52.100;5.176;2023-03-31T10:27:38;11.60;;;2.85;;
36411;SDS011;22445;52.100;5.176;2023-03-31T10:30:08;14.32;;;2.72;;
36411;SDS011;22445;52.100;5.176;2023-03-31T10:32:41;14.27;;;2.88;;
36411;SDS011;22445;52.100;5.176;2023-03-31T10:35:13;13.75;;;2.60;;
36411;SDS011;22445;52.100;5.176;2023-03-31T10:38:09;9.45;;;2.08;;
36411;SDS011;22445;52.100;5.176;2023-03-31T10:40:37;6.78;;;2.20;;
36411;SDS011;22445;52.100;5.176;2023-03-31T10:43:10;8.32;;;1.52;;
36411;SDS011;22445;52.100;5.176;2023-03-31T10:45:41;12.27;;;2.10;;
36411;SDS011;22445;52.100;5.176;2023-03-31T10:48:30;9.48;;;1.65;;
36411;SDS011;22445;52.100;5.176;2023-03-31T10:51:03;12.13;;;2.35;;
36411;SDS011;22445;52.100;5.176;2023-03-31T10:53:49;8.35;;;2.08;;
36411;SDS011;22445;52.100;5.176;2023-03-31T10:59:35;12.30;;;2.40;;
36411;SDS011;22445;52.100;5.176;2023-03-31T11:05:18;8.05;;;2.15;;
36411;SDS011;22445;52.100;5.176;2023-03-31T11:08:22;13.95;;;2.47;;
36411;SDS011;22445;52.100;5.176;2023-03-31T11:17:36;8.07;;;1.85;;
36411;SDS011;22445;52.100;5.176;2023-03-31T11:30:39;11.30;;;1.88;;
36411;SDS011;22445;52.100;5.176;2023-03-31T11:43:47;9.50;;;2.28;;
36411;SDS011;22445;52.100;5.176;2023-03-31T11:47:06;8.32;;;2.55;;
36411;SDS011;22445;52.100;5.176;2023-03-31T11:49:42;11.45;;;2.13;;
36411;SDS011;22445;52.100;5.176;2023-03-31T11:52:17;9.90;;;2.65;;
36411;SDS011;22445;52.100;5.176;2023-03-31T11:57:43;17.77;;;2.80;;
36411;SDS011;22445;52.100;5.176;2023-03-31T12:00:16;10.02;;;1.88;;
36411;SDS011;22445;52.100;5.176;2023-03-31T12:05:58;4.22;;;1.42;;
36411;SDS011;22445;52.100;5.176;2023-03-31T12:08:37;6.78;;;1.67;;
36411;SDS011;22445;52.100;5.176;2023-03-31T12:11:07;9.98;;;1.75;;
36411;SDS011;22445;52.100;5.176;2023-03-31T12:17:15;5.20;;;1.58;;
36411;SDS011;22445;52.100;5.176;2023-03-31T12:19:49;11.55;;;1.63;;
36411;SDS011;22445;52.100;5.176;2023-03-31T12:22:18;8.50;;;2.00;;
36411;SDS011;22445;52.100;5.176;2023-03-31T12:24:48;4.93;;;1.23;;
36411;SDS011;22445;52.100;5.176;2023-03-31T12:27:22;12.95;;;1.80;;
36411;SDS011;22445;52.100;5.176;2023-03-31T12:33:09;4.25;;;1.65;;
36411;SDS011;22445;52.100;5.176;2023-03-31T12:45:20;12.32;;;1.92;;
36411;SDS011;22445;52.100;5.176;2023-03-31T12:51:11;8.23;;;1.45;;
36411;SDS011;22445;52.100;5.176;2023-03-31T13:13:05;11.90;;;1.83;;
36411;SDS011;22445;52.100;5.176;2023-03-31T13:15:49;11.43;;;2.42;;
36411;SDS011;22445;52.100;5.176;2023-03-31T13:18:17;8.43;;;2.47;;
36411;SDS011;22445;52.100;5.176;2023-03-31T13:20:44;20.98;;;3.08;;
36411;SDS011;22445;52.100;5.176;2023-03-31T13:25:58;11.50;;;2.15;;
36411;SDS011;22445;52.100;5.176;2023-03-31T13:28:25;6.22;;;1.80;;
36411;SDS011;22445;52.100;5.176;2023-03-31T13:31:12;13.43;;;2.42;;
36411;SDS011;22445;52.100;5.176;2023-03-31T13:33:42;10.27;;;2.10;;
36411;SDS011;22445;52.100;5.176;2023-03-31T13:36:29;11.85;;;1.90;;
36411;SDS011;22445;52.100;5.176;2023-03-31T13:51:28;6.38;;;1.95;;
36411;SDS011;22445;52.100;5.176;2023-03-31T13:57:30;8.52;;;1.63;;
36411;SDS011;22445;52.100;5.176;2023-03-31T14:03:18;8.80;;;2.20;;
36411;SDS011;22445;52.100;5.176;2023-03-31T14:05:56;6.03;;;1.38;;
36411;SDS011;22445;52.100;5.176;2023-03-31T14:08:32;8.75;;;1.85;;
36411;SDS011;22445;52.100;5.176;2023-03-31T14:13:59;7.03;;;1.35;;
36411;SDS011;22445;52.100;5.176;2023-03-31T14:16:30;6.13;;;1.60;;
36411;SDS011;22445;52.100;5.176;2023-03-31T14:31:48;6.20;;;1.35;;
36411;SDS011;22445;52.100;5.176;2023-03-31T14:34:33;6.88;;;1.55;;
36411;SDS011;22445;52.100;5.176;2023-03-31T14:37:22;7.47;;;1.67;;
36411;SDS011;22445;52.100;5.176;2023-03-31T14:39:49;3.75;;;1.00;;
36411;SDS011;22445;52.100;5.176;2023-03-31T14:42:18;4.53;;;0.88;;
36411;SDS011;22445;52.100;5.176;2023-03-31T14:44:46;4.53;;;0.82;;
36411;SDS011;22445;52.100;5.176;2023-03-31T14:47:21;6.13;;;1.20;;
36411;SDS011;22445;52.100;5.176;2023-03-31T14:50:26;3.72;;;1.42;;
36411;SDS011;22445;52.100;5.176;2023-03-31T14:52:47;5.93;;;1.20;;
36411;SDS011;22445;52.100;5.176;2023-03-31T14:55:15;4.18;;;1.60;;
36411;SDS011;22445;52.100;5.176;2023-03-31T14:57:42;4.72;;;1.13;;
36411;SDS011;22445;52.100;5.176;2023-03-31T15:00:11;1.95;;;1.10;;
36411;SDS011;22445;52.100;5.176;2023-03-31T15:02:39;4.07;;;1.23;;
36411;SDS011;22445;52.100;5.176;2023-03-31T15:05:07;3.25;;;1.23;;
36411;SDS011;22445;52.100;5.176;2023-03-31T15:07:34;5.75;;;1.15;;
36411;SDS011;22445;52.100;5.176;2023-03-31T15:10:01;3.38;;;0.98;;
36411;SDS011;22445;52.100;5.176;2023-03-31T15:12:27;6.18;;;1.23;;
36411;SDS011;22445;52.100;5.176;2023-03-31T15:14:54;6.90;;;1.33;;
36411;SDS011;22445;52.100;5.176;2023-03-31T15:17:29;5.40;;;1.23;;
36411;SDS011;22445;52.100;5.176;2023-03-31T15:20:00;3.30;;;1.42;;
36411;SDS011;22445;52.100;5.176;2023-03-31T15:22:29;4.63;;;1.13;;
36411;SDS011;22445;52.100;5.176;2023-03-31T15:24:55;1.65;;;1.17;;
36411;SDS011;22445;52.100;5.176;2023-03-31T15:30:21;4.90;;;1.40;;
36411;SDS011;22445;52.100;5.176;2023-03-31T15:32:48;2.50;;;1.33;;
36411;SDS011;22445;52.100;5.176;2023-03-31T15:35:25;2.78;;;1.40;;
36411;SDS011;22445;52.100;5.176;2023-03-31T15:37:55;2.50;;;1.10;;
36411;SDS011;22445;52.100;5.176;2023-03-31T15:40:22;4.35;;;1.50;;
36411;SDS011;22445;52.100;5.176;2023-03-31T15:42:55;6.28;;;1.67;;
36411;SDS011;22445;52.100;5.176;2023-03-31T15:54:02;4.03;;;1.40;;
36411;SDS011;22445;52.100;5.176;2023-03-31T15:56:34;5.43;;;1.27;;
36411;SDS011;22445;52.100;5.176;2023-03-31T16:01:51;5.75;;;1.50;;
36411;SDS011;22445;52.100;5.176;2023-03-31T16:04:18;3.15;;;1.75;;
36411;SDS011;22445;52.100;5.176;2023-03-31T16:06:44;3.38;;;1.48;;
36411;SDS011;22445;52.100;5.176;2023-03-31T16:09:16;6.35;;;1.80;;
36411;SDS011;22445;52.100;5.176;2023-03-31T16:11:51;3.47;;;1.83;;
36411;SDS011;22445;52.100;5.176;2023-03-31T16:17:27;2.40;;;1.77;;
36411;SDS011;22445;52.100;5.176;2023-03-31T16:20:03;3.60;;;2.08;;
36411;SDS011;22445;52.100;5.176;2023-03-31T16:22:41;2.85;;;1.30;;
36411;SDS011;22445;52.100;5.176;2023-03-31T16:25:09;4.72;;;1.70;;
36411;SDS011;22445;52.100;5.176;2023-03-31T16:27:37;0.25;;;0.25;;
36411;SDS011;22445;52.100;5.176;2023-03-31T16:30:11;0.32;;;0.10;;
36411;SDS011;22445;52.100;5.176;2023-03-31T16:32:56;0.00;;;0.00;;
36411;SDS011;22445;52.100;5.176;2023-03-31T16:35:23;0.43;;;0.43;;
36411;SDS011;22445;52.100;5.176;2023-03-31T16:37:52;0.45;;;0.35;;
36411;SDS011;22445;52.100;5.176;2023-03-31T16:40:18;0.00;;;0.00;;
36411;SDS011;22445;52.100;5.176;2023-03-31T16:42:44;0.00;;;0.00;;
36411;SDS011;22445;52.100;5.176;2023-03-31T16:45:10;0.08;;;0.08;;
36411;SDS011;22445;52.100;5.176;2023-03-31T16:47:37;1.25;;;0.35;;
36411;SDS011;22445;52.100;5.176;2023-03-31T16:50:03;0.57;;;0.52;;
36411;SDS011;22445;52.100;5.176;2023-03-31T16:52:32;1.10;;;0.55;;
36411;SDS011;22445;52.100;5.176;2023-03-31T16:54:58;0.00;;;0.00;;
36411;SDS011;22445;52.100;5.176;2023-03-31T16:57:24;0.32;;;0.25;;
36411;SDS011;22445;52.100;5.176;2023-03-31T16:59:49;0.00;;;0.00;;
36411;SDS011;22445;52.100;5.176;2023-03-31T17:02:14;0.00;;;0.00;;
36411;SDS011;22445;52.100;5.176;2023-03-31T17:04:40;2.60;;;0.47;;
36411;SDS011;22445;52.100;5.176;2023-03-31T17:07:06;0.22;;;0.22;;
36411;SDS011;22445;52.100;5.176;2023-03-31T17:09:31;0.00;;;0.00;;
36411;SDS011;22445;52.100;5.176;2023-03-31T17:11:56;0.43;;;0.22;;
36411;SDS011;22445;52.100;5.176;2023-03-31T17:14:22;0.00;;;0.00;;
36411;SDS011;22445;52.100;5.176;2023-03-31T17:16:48;0.13;;;0.13;;
36411;SDS011;22445;52.100;5.176;2023-03-31T17:19:14;0.10;;;0.10;;
36411;SDS011;22445;52.100;5.176;2023-03-31T17:21:41;0.35;;;0.13;;
36411;SDS011;22445;52.100;5.176;2023-03-31T17:24:07;0.00;;;0.00;;
36411;SDS011;22445;52.100;5.176;2023-03-31T17:26:33;0.30;;;0.30;;
36411;SDS011;22445;52.100;5.176;2023-03-31T17:29:00;0.00;;;0.00;;
36411;SDS011;22445;52.100;5.176;2023-03-31T17:31:26;0.10;;;0.10;;
36411;SDS011;22445;52.100;5.176;2023-03-31T17:33:51;0.00;;;0.00;;
36411;SDS011;22445;52.100;5.176;2023-03-31T17:36:17;0.13;;;0.05;;
36411;SDS011;22445;52.100;5.176;2023-03-31T17:38:42;0.00;;;0.00;;
36411;SDS011;22445;52.100;5.176;2023-03-31T17:41:09;0.50;;;0.50;;
36411;SDS011;22445;52.100;5.176;2023-03-31T17:43:36;0.00;;;0.00;;
36411;SDS011;22445;52.100;5.176;2023-03-31T17:46:04;0.00;;;0.00;;
36411;SDS011;22445;52.100;5.176;2023-03-31T17:48:31;0.25;;;0.25;;
36411;SDS011;22445;52.100;5.176;2023-03-31T17:51:08;0.28;;;0.20;;
36411;SDS011;22445;52.100;5.176;2023-03-31T17:53:42;0.00;;;0.00;;
36411;SDS011;22445;52.100;5.176;2023-03-31T17:56:09;0.20;;;0.10;;
36411;SDS011;22445;52.100;5.176;2023-03-31T17:58:35;0.30;;;0.28;;
36411;SDS011;22445;52.100;5.176;2023-03-31T18:01:02;4.07;;;3.25;;
36411;SDS011;22445;52.100;5.176;2023-03-31T18:03:29;4.18;;;3.10;;
36411;SDS011;22445;52.100;5.176;2023-03-31T18:05:55;5.80;;;2.55;;
36411;SDS011;22445;52.100;5.176;2023-03-31T18:08:21;4.68;;;2.72;;
36411;SDS011;22445;52.100;5.176;2023-03-31T18:10:47;3.75;;;3.10;;
36411;SDS011;22445;52.100;5.176;2023-03-31T18:13:13;4.82;;;3.33;;
36411;SDS011;22445;52.100;5.176;2023-03-31T18:15:44;6.45;;;2.75;;
36411;SDS011;22445;52.100;5.176;2023-03-31T18:18:13;4.20;;;3.20;;
36411;SDS011;22445;52.100;5.176;2023-03-31T18:20:38;4.13;;;3.22;;
36411;SDS011;22445;52.100;5.176;2023-03-31T18:23:04;8.20;;;3.85;;
36411;SDS011;22445;52.100;5.176;2023-03-31T18:25:29;0.13;;;0.13;;
36411;SDS011;22445;52.100;5.176;2023-03-31T18:27:55;8.35;;;3.95;;
36411;SDS011;22445;52.100;5.176;2023-03-31T18:30:20;5.70;;;4.22;;